createdAt,value
2023-05-12T00:00:28.085Z,100.00
2023-05-12T00:02:57.585Z,100.00
2023-05-12T00:05:25.744Z,100.00
2023-05-12T00:07:53.767Z,100.00
2023-05-12T00:10:21.906Z,100.00
2023-05-12T00:12:51.174Z,100.00
2023-05-12T00:15:20.110Z,100.00
2023-05-12T00:17:49.097Z,100.00
2023-05-12T00:20:18.739Z,100.00
2023-05-12T00:22:46.908Z,100.00
2023-05-12T00:25:14.849Z,100.00
2023-05-12T00:27:42.773Z,100.00
2023-05-12T00:30:14.426Z,100.00
2023-05-12T00:32:42.870Z,100.00
2023-05-12T00:35:11.577Z,100.00
2023-05-12T00:37:41.147Z,100.00
2023-05-12T00:40:09.917Z,100.00
2023-05-12T00:42:37.918Z,100.00
2023-05-12T00:45:07.533Z,100.00
2023-05-12T00:47:35.703Z,100.00
2023-05-12T00:50:04.930Z,100.00
2023-05-12T00:52:33.223Z,100.00
2023-05-12T00:55:03.500Z,100.00
2023-05-12T00:57:31.790Z,100.00
2023-05-12T00:59:59.763Z,100.00
2023-05-12T01:02:27.812Z,100.00
2023-05-12T01:04:55.879Z,100.00
2023-05-12T01:07:24.197Z,100.00
2023-05-12T01:09:56.635Z,100.00
2023-05-12T01:12:26.842Z,100.00
2023-05-12T01:14:56.869Z,100.00
2023-05-12T01:17:29.774Z,100.00
2023-05-12T01:20:01.636Z,100.00
2023-05-12T01:22:31.445Z,100.00
2023-05-12T01:25:01.127Z,100.00
2023-05-12T01:27:31.143Z,100.00
2023-05-12T01:30:04.818Z,100.00
2023-05-12T01:32:32.814Z,100.00
2023-05-12T01:35:00.926Z,100.00
2023-05-12T01:37:29.196Z,100.00
2023-05-12T01:39:57.653Z,100.00
2023-05-12T01:42:26.867Z,100.00
2023-05-12T01:44:56.264Z,100.00
2023-05-12T01:47:24.279Z,100.00
2023-05-12T01:49:55.923Z,100.00
2023-05-12T01:52:25.149Z,100.00
2023-05-12T01:54:53.234Z,100.00
2023-05-12T01:57:22.645Z,100.00
2023-05-12T01:59:50.809Z,100.00
2023-05-12T02:02:20.607Z,100.00
2023-05-12T02:04:48.627Z,100.00
2023-05-12T02:07:17.129Z,100.00
2023-05-12T02:09:45.039Z,100.00
2023-05-12T02:12:13.525Z,100.00
2023-05-12T02:14:44.112Z,100.00
2023-05-12T02:17:12.094Z,100.00
2023-05-12T02:19:41.388Z,100.00
2023-05-12T02:22:10.708Z,100.00
2023-05-12T02:24:38.699Z,100.00
2023-05-12T02:27:07.051Z,100.00
2023-05-12T02:29:35.044Z,100.00
2023-05-12T02:32:05.453Z,100.00
2023-05-12T02:34:33.545Z,100.00
2023-05-12T02:37:04.133Z,100.00
2023-05-12T02:39:32.081Z,100.00
2023-05-12T02:42:00.096Z,100.00
2023-05-12T02:44:28.267Z,100.00
2023-05-12T02:46:58.073Z,100.00
2023-05-12T02:49:26.052Z,100.00
2023-05-12T02:51:55.250Z,100.00
2023-05-12T02:54:24.632Z,100.00
2023-05-12T02:56:53.297Z,100.00
2023-05-12T02:59:21.582Z,100.00
2023-05-12T03:01:49.642Z,100.00
2023-05-12T03:04:17.752Z,100.00
2023-05-12T03:06:46.138Z,100.00
2023-05-12T03:09:14.177Z,100.00
2023-05-12T03:11:43.445Z,100.00
2023-05-12T03:14:11.409Z,100.00
2023-05-12T03:16:39.348Z,100.00
2023-05-12T03:19:07.520Z,100.00
2023-05-12T03:21:35.677Z,100.00
2023-05-12T03:24:03.688Z,100.00
2023-05-12T03:26:31.772Z,100.00
2023-05-12T03:29:01.171Z,100.00
2023-05-12T03:31:29.205Z,100.00
2023-05-12T03:33:57.144Z,100.00
2023-05-12T03:36:25.283Z,100.00
2023-05-12T03:38:53.166Z,100.00
2023-05-12T03:41:22.144Z,100.00
2023-05-12T03:43:50.129Z,100.00
2023-05-12T03:46:19.787Z,100.00
2023-05-12T03:48:48.828Z,100.00
2023-05-12T03:51:16.769Z,100.00
2023-05-12T03:53:46.346Z,100.00
2023-05-12T03:56:15.730Z,100.00
2023-05-12T03:58:43.901Z,100.00
2023-05-12T04:01:11.856Z,100.00
2023-05-12T04:03:42.248Z,100.00
2023-05-12T04:06:10.662Z,100.00
2023-05-12T04:08:41.955Z,100.00
2023-05-12T04:11:10.830Z,100.00
2023-05-12T04:13:38.853Z,100.00
2023-05-12T04:16:09.362Z,100.00
2023-05-12T04:18:37.457Z,100.00
2023-05-12T04:21:08.116Z,100.00
2023-05-12T04:23:36.091Z,100.00
2023-05-12T04:26:05.555Z,100.00
2023-05-12T04:28:33.565Z,100.00
2023-05-12T04:31:22.168Z,100.00
2023-05-12T04:33:50.172Z,100.00
2023-05-12T04:36:19.440Z,100.00
2023-05-12T04:38:48.631Z,100.00
2023-05-12T04:41:16.756Z,100.00
2023-05-12T04:46:17.701Z,100.00
2023-05-12T04:48:46.340Z,100.00
2023-05-12T04:51:14.301Z,100.00
2023-05-12T04:53:43.596Z,100.00
2023-05-12T04:56:13.029Z,100.00
2023-05-12T04:58:41.307Z,100.00
2023-05-12T05:01:09.482Z,100.00
2023-05-12T05:03:40.060Z,100.00
2023-05-12T05:06:08.528Z,100.00
2023-05-12T05:08:36.734Z,100.00
2023-05-12T05:11:06.219Z,100.00
2023-05-12T05:13:34.287Z,100.00
2023-05-12T05:16:02.514Z,100.00
2023-05-12T05:18:30.742Z,100.00
2023-05-12T05:20:59.316Z,100.00
2023-05-12T05:23:27.626Z,100.00
2023-05-12T05:25:55.603Z,100.00
2023-05-12T05:28:24.921Z,100.00
2023-05-12T05:30:52.881Z,100.00
2023-05-12T05:33:21.386Z,100.00
2023-05-12T05:35:50.838Z,100.00
2023-05-12T05:38:18.938Z,100.00
2023-05-12T05:40:53.724Z,100.00
2023-05-12T05:43:24.055Z,100.00
2023-05-12T05:45:52.230Z,100.00
2023-05-12T05:48:21.145Z,100.00
2023-05-12T05:50:49.567Z,100.00
2023-05-12T05:53:19.495Z,100.00
2023-05-12T05:55:48.698Z,100.00
2023-05-12T05:58:20.568Z,100.00
2023-05-12T06:00:53.340Z,100.00
2023-05-12T06:03:22.831Z,100.00
2023-05-12T06:05:51.331Z,100.00
2023-05-12T06:08:19.300Z,100.00
2023-05-12T06:10:47.388Z,100.00
2023-05-12T06:13:15.817Z,100.00
2023-05-12T06:15:44.022Z,100.00
2023-05-12T06:18:13.430Z,100.00
2023-05-12T06:20:44.390Z,100.00
2023-05-12T06:23:12.395Z,100.00
2023-05-12T06:25:40.685Z,100.00
2023-05-12T06:28:09.157Z,100.00
2023-05-12T06:30:37.130Z,100.00
2023-05-12T06:33:05.323Z,100.00
2023-05-12T06:35:35.015Z,100.00
2023-05-12T06:38:03.029Z,100.00
2023-05-12T06:40:30.984Z,100.00
2023-05-12T06:42:59.157Z,100.00
2023-05-12T06:45:27.346Z,100.00
2023-05-12T06:47:55.362Z,100.00
2023-05-12T06:50:23.452Z,100.00
2023-05-12T06:52:53.536Z,100.00
2023-05-12T06:55:22.306Z,100.00
2023-05-12T06:57:51.810Z,100.00
2023-05-12T07:00:20.360Z,100.00
2023-05-12T07:02:48.597Z,100.00
2023-05-12T07:05:17.015Z,100.00
2023-05-12T07:07:46.882Z,100.00
2023-05-12T07:10:16.373Z,100.00
2023-05-12T07:12:45.617Z,100.00
2023-05-12T07:15:16.080Z,100.00
2023-05-12T07:17:44.192Z,100.00
2023-05-12T07:20:12.930Z,100.00
2023-05-12T07:22:40.985Z,100.00
2023-05-12T07:25:09.697Z,100.00
2023-05-12T07:27:39.066Z,100.00
2023-05-12T07:30:08.557Z,100.00
2023-05-12T07:32:36.785Z,100.00
2023-05-12T07:35:08.289Z,100.00
2023-05-12T07:37:37.194Z,100.00
2023-05-12T07:40:06.209Z,100.00
2023-05-12T07:42:34.629Z,100.00
2023-05-12T07:45:04.615Z,100.00
2023-05-12T07:47:32.770Z,100.00
2023-05-12T07:50:01.019Z,100.00
2023-05-12T07:52:28.997Z,100.00
2023-05-12T07:54:58.039Z,100.00
2023-05-12T07:57:26.555Z,100.00
2023-05-12T07:59:55.834Z,100.00
2023-05-12T08:02:26.189Z,100.00
2023-05-12T08:04:56.230Z,100.00
2023-05-12T08:07:27.246Z,100.00
2023-05-12T08:10:01.217Z,100.00
2023-05-12T08:12:35.671Z,100.00
2023-05-12T08:15:04.177Z,100.00
2023-05-12T08:17:33.512Z,100.00
2023-05-12T08:20:08.246Z,100.00
2023-05-12T08:22:39.006Z,100.00
2023-05-12T08:25:12.394Z,100.00
2023-05-12T08:27:41.229Z,100.00
2023-05-12T08:30:10.028Z,100.00
2023-05-12T08:32:39.650Z,100.00
2023-05-12T08:35:08.302Z,100.00
2023-05-12T08:37:37.082Z,100.00
2023-05-12T08:40:15.062Z,100.00
2023-05-12T08:42:45.317Z,100.00
2023-05-12T08:45:13.621Z,100.00
2023-05-12T08:47:45.016Z,100.00
2023-05-12T08:50:15.790Z,100.00
2023-05-12T08:52:44.160Z,100.00
2023-05-12T08:55:13.412Z,100.00
2023-05-12T08:57:45.615Z,100.00
2023-05-12T09:00:14.948Z,100.00
2023-05-12T09:02:54.026Z,100.00
2023-05-12T09:05:25.542Z,100.00
2023-05-12T09:07:56.062Z,100.00
2023-05-12T09:10:35.275Z,100.00
2023-05-12T09:13:09.874Z,100.00
2023-05-12T09:15:43.224Z,100.00
2023-05-12T09:18:12.519Z,100.00
2023-05-12T09:20:40.531Z,100.00
2023-05-12T09:23:16.730Z,100.00
2023-05-12T09:25:44.856Z,100.00
2023-05-12T09:28:13.097Z,100.00
2023-05-12T09:30:42.883Z,100.00
2023-05-12T09:33:14.160Z,100.00
2023-05-12T09:35:43.192Z,100.00
2023-05-12T09:38:12.865Z,100.00
2023-05-12T09:40:42.894Z,100.00
2023-05-12T09:43:14.549Z,100.00
2023-05-12T09:45:44.387Z,100.00
2023-05-12T09:48:14.992Z,100.00
2023-05-12T09:50:50.528Z,100.00
2023-05-12T09:53:19.731Z,100.00
2023-05-12T09:55:49.113Z,100.00
2023-05-12T09:58:19.049Z,100.00
2023-05-12T10:03:23.867Z,96.32
2023-05-12T10:05:58.732Z,91.89
2023-05-12T10:08:38.793Z,89.23
2023-05-12T10:11:09.853Z,89.00
2023-05-12T10:13:39.388Z,94.48
2023-05-12T10:16:09.113Z,90.65
2023-05-12T10:18:38.575Z,95.13
2023-05-12T10:21:08.344Z,92.40
2023-05-12T10:23:43.613Z,93.28
2023-05-12T10:26:12.590Z,88.70
2023-05-12T10:28:41.047Z,86.80
2023-05-12T10:31:09.495Z,83.86
2023-05-12T10:33:39.276Z,84.44
2023-05-12T10:36:18.204Z,78.77
2023-05-12T10:38:49.746Z,78.88
2023-05-12T10:41:18.313Z,74.45
2023-05-12T10:43:50.905Z,74.00
2023-05-12T10:46:21.029Z,72.34
2023-05-12T10:48:56.555Z,70.97
2023-05-12T10:51:28.683Z,71.40
2023-05-12T10:54:01.727Z,71.85
2023-05-12T10:56:31.313Z,70.48
2023-05-12T10:59:18.431Z,68.51
2023-05-12T11:02:15.693Z,68.48
2023-05-12T11:04:49.109Z,68.55
2023-05-12T11:07:22.218Z,69.03
2023-05-12T11:09:58.500Z,68.25
2023-05-12T11:12:29.349Z,66.22
2023-05-12T11:14:57.370Z,67.76
2023-05-12T11:17:25.846Z,62.34
2023-05-12T11:19:55.870Z,60.63
2023-05-12T11:22:25.444Z,62.55
2023-05-12T11:24:53.940Z,59.84
2023-05-12T11:27:24.017Z,58.32
2023-05-12T11:29:59.229Z,58.70
2023-05-12T11:32:27.409Z,59.78
2023-05-12T11:34:57.977Z,59.40
2023-05-12T11:37:26.059Z,59.06
2023-05-12T11:39:54.005Z,59.90
2023-05-12T11:42:24.424Z,59.97
2023-05-12T11:44:56.267Z,60.35
2023-05-12T11:47:24.508Z,60.02
2023-05-12T11:49:54.739Z,60.61
2023-05-12T11:52:25.786Z,60.14
2023-05-12T11:54:54.848Z,59.15
2023-05-12T11:57:27.297Z,59.52
2023-05-12T12:00:00.361Z,59.25
2023-05-12T12:02:29.287Z,59.94
2023-05-12T12:04:57.962Z,62.27
2023-05-12T12:07:35.346Z,60.53
2023-05-12T12:10:13.295Z,59.41
2023-05-12T12:12:41.908Z,61.76
2023-05-12T12:15:11.219Z,64.96
2023-05-12T12:17:40.102Z,66.14
2023-05-12T12:20:10.019Z,67.00
2023-05-12T12:22:40.976Z,67.45
2023-05-12T12:25:10.018Z,64.77
2023-05-12T12:27:38.392Z,63.36
2023-05-12T12:30:07.544Z,63.60
2023-05-12T12:32:35.613Z,64.39
2023-05-12T12:35:04.462Z,64.44
2023-05-12T12:37:32.505Z,65.55
2023-05-12T12:40:08.063Z,66.23
2023-05-12T12:42:37.655Z,65.18
2023-05-12T12:45:06.904Z,65.86
2023-05-12T12:47:35.220Z,65.51
2023-05-12T12:50:03.669Z,66.71
2023-05-12T12:52:31.963Z,65.48
2023-05-12T12:55:02.428Z,65.38
2023-05-12T12:57:30.740Z,65.40
2023-05-12T12:59:58.736Z,66.34
2023-05-12T13:02:27.173Z,66.42
2023-05-12T13:04:55.795Z,65.74
2023-05-12T13:07:23.728Z,64.20
2023-05-12T13:09:51.854Z,64.77
2023-05-12T13:12:21.202Z,64.89
2023-05-12T13:14:49.346Z,64.17
2023-05-12T13:17:17.585Z,64.33
2023-05-12T13:19:45.755Z,64.14
2023-05-12T13:22:13.895Z,64.77
2023-05-12T13:24:42.870Z,65.68
2023-05-12T13:27:10.909Z,64.04
2023-05-12T13:29:42.300Z,63.84
2023-05-12T13:32:10.408Z,64.46
2023-05-12T13:34:38.513Z,64.33
2023-05-12T13:37:06.840Z,64.92
2023-05-12T13:39:35.921Z,65.62
2023-05-12T13:42:04.619Z,65.04
2023-05-12T13:44:34.486Z,65.80
2023-05-12T13:47:08.353Z,64.47
2023-05-12T13:49:38.109Z,65.33
2023-05-12T13:52:06.723Z,65.00
2023-05-12T13:54:35.095Z,64.42
2023-05-12T13:57:03.977Z,64.60
2023-05-12T13:59:32.258Z,65.03
2023-05-12T14:02:01.351Z,63.25
2023-05-12T14:04:30.839Z,64.26
2023-05-12T14:06:58.827Z,64.24
2023-05-12T14:09:28.735Z,63.92
2023-05-12T14:11:58.167Z,62.58
2023-05-12T14:14:26.237Z,63.99
2023-05-12T14:16:54.899Z,64.34
2023-05-12T14:19:23.220Z,63.60
2023-05-12T14:21:54.976Z,63.81
2023-05-12T14:24:23.117Z,63.64
2023-05-12T14:26:51.191Z,63.39
2023-05-12T14:29:19.360Z,64.33
2023-05-12T14:31:47.353Z,62.40
2023-05-12T14:34:15.306Z,61.77
2023-05-12T14:36:43.378Z,62.21
2023-05-12T14:39:15.874Z,62.62
2023-05-12T14:41:43.914Z,62.60
2023-05-12T14:44:12.129Z,61.60
2023-05-12T14:46:41.076Z,61.89
2023-05-12T14:49:12.388Z,62.42
2023-05-12T14:51:40.950Z,61.14
2023-05-12T14:54:21.856Z,60.52
2023-05-12T14:56:54.444Z,61.98
2023-05-12T14:59:24.776Z,62.28
2023-05-12T15:01:53.015Z,63.84
2023-05-12T15:04:21.393Z,64.43
2023-05-12T15:06:50.299Z,64.78
2023-05-12T15:09:19.299Z,65.67
2023-05-12T15:11:48.206Z,65.31
2023-05-12T15:14:18.000Z,66.69
2023-05-12T15:16:46.380Z,66.34
2023-05-12T15:19:15.567Z,64.98
2023-05-12T15:21:43.914Z,63.89
2023-05-12T15:24:11.842Z,62.73
2023-05-12T15:26:40.509Z,63.16
2023-05-12T15:29:08.700Z,62.95
2023-05-12T15:31:38.182Z,63.29
2023-05-12T15:34:06.328Z,63.39
2023-05-12T15:36:34.467Z,65.03
2023-05-12T15:39:03.806Z,65.73
2023-05-12T15:41:31.930Z,66.19
2023-05-12T15:44:00.002Z,66.02
2023-05-12T15:46:28.253Z,66.18
2023-05-12T15:48:58.588Z,66.65
2023-05-12T15:51:27.034Z,67.62
2023-05-12T15:53:55.284Z,66.65
2023-05-12T15:56:23.279Z,66.09
2023-05-12T15:58:51.818Z,65.93
2023-05-12T16:01:19.840Z,64.18
2023-05-12T16:03:48.147Z,63.87
2023-05-12T16:06:19.449Z,64.80
2023-05-12T16:08:47.623Z,64.11
2023-05-12T16:11:15.641Z,63.33
2023-05-12T16:13:43.686Z,63.75
2023-05-12T16:16:11.831Z,64.42
2023-05-12T16:18:40.107Z,64.59
2023-05-12T16:21:09.585Z,65.56
2023-05-12T16:23:38.988Z,65.77
2023-05-12T16:26:07.205Z,65.54
2023-05-12T16:28:36.101Z,65.87
2023-05-12T16:31:04.739Z,65.76
2023-05-12T16:33:32.820Z,65.95
2023-05-12T16:36:01.298Z,67.21
2023-05-12T16:38:29.669Z,66.80
2023-05-12T16:40:59.121Z,67.23
2023-05-12T16:43:27.156Z,67.06
2023-05-12T16:46:02.174Z,68.46
2023-05-12T16:48:34.386Z,68.99
2023-05-12T16:51:03.773Z,68.98
2023-05-12T16:53:31.925Z,68.75
2023-05-12T16:56:01.253Z,69.18
2023-05-12T16:58:32.377Z,69.58
2023-05-12T17:01:01.208Z,69.92
2023-05-12T17:03:29.641Z,70.37
2023-05-12T17:05:57.712Z,69.82
2023-05-12T17:08:25.813Z,71.30
2023-05-12T17:10:53.941Z,71.35
2023-05-12T17:13:23.283Z,71.02
2023-05-12T17:15:52.399Z,71.60
2023-05-12T17:18:20.817Z,71.92
2023-05-12T17:20:48.853Z,71.92
2023-05-12T17:23:17.052Z,71.63
2023-05-12T17:25:45.037Z,72.13
2023-05-12T17:28:13.018Z,71.30
2023-05-12T17:30:43.090Z,72.13
2023-05-12T17:33:11.577Z,72.63
2023-05-12T17:35:39.693Z,72.80
2023-05-12T17:38:08.161Z,72.85
2023-05-12T17:40:36.160Z,72.77
2023-05-12T17:43:04.391Z,73.11
2023-05-12T17:45:32.562Z,73.82
2023-05-12T17:48:03.359Z,74.09
2023-05-12T17:50:31.384Z,75.05
2023-05-12T17:52:59.365Z,75.38
2023-05-12T17:55:27.409Z,75.65
2023-05-12T17:57:55.753Z,76.42
2023-05-12T18:00:23.993Z,77.03
2023-05-12T18:02:52.271Z,77.75
2023-05-12T18:05:22.279Z,78.22
2023-05-12T18:07:50.453Z,78.70
2023-05-12T18:10:18.648Z,79.25
2023-05-12T18:12:48.250Z,79.19
2023-05-12T18:15:17.118Z,79.80
2023-05-12T18:17:45.483Z,80.35
2023-05-12T18:20:13.872Z,80.63
2023-05-12T18:22:43.289Z,80.93
2023-05-12T18:25:13.974Z,81.31
2023-05-12T18:27:42.396Z,82.37
2023-05-12T18:30:11.517Z,82.88
2023-05-12T18:32:41.258Z,83.70
2023-05-12T18:35:09.972Z,84.29
2023-05-12T18:37:37.915Z,84.35
2023-05-12T18:40:11.307Z,84.49
2023-05-12T18:42:39.441Z,85.20
2023-05-12T18:45:08.619Z,85.34
2023-05-12T18:47:36.722Z,85.67
2023-05-12T18:50:05.476Z,85.36
2023-05-12T18:52:33.434Z,85.34
2023-05-12T18:55:01.623Z,85.37
2023-05-12T18:57:33.100Z,85.38
2023-05-12T19:00:01.310Z,85.42
2023-05-12T19:02:29.385Z,85.39
2023-05-12T19:04:57.887Z,86.04
2023-05-12T19:07:26.076Z,86.60
2023-05-12T19:09:54.137Z,87.18
2023-05-12T19:12:23.453Z,88.06
2023-05-12T19:14:53.342Z,89.05
2023-05-12T19:17:22.170Z,89.21
2023-05-12T19:19:50.738Z,89.62
2023-05-12T19:22:19.081Z,89.69
2023-05-12T19:24:47.385Z,90.10
2023-05-12T19:27:15.400Z,90.92
2023-05-12T19:29:43.461Z,91.62
2023-05-12T19:32:13.315Z,92.20
2023-05-12T19:34:42.614Z,92.96
2023-05-12T19:37:10.668Z,93.68
2023-05-12T19:39:38.571Z,93.93
2023-05-12T19:42:07.090Z,94.52
2023-05-12T19:44:35.058Z,94.29
2023-05-12T19:47:04.908Z,94.83
2023-05-12T19:49:35.472Z,95.33
2023-05-12T19:52:03.576Z,95.05
2023-05-12T19:54:31.701Z,95.29
2023-05-12T19:56:59.838Z,95.55
2023-05-12T19:59:27.802Z,95.63
2023-05-12T20:01:55.927Z,95.81
2023-05-12T20:04:25.457Z,96.27
2023-05-12T20:06:55.127Z,96.64
2023-05-12T20:09:24.913Z,96.75
2023-05-12T20:11:52.928Z,96.97
2023-05-12T20:14:22.098Z,97.48
2023-05-12T20:16:50.603Z,97.97
2023-05-12T20:19:19.102Z,98.00
2023-05-12T20:21:47.089Z,98.49
2023-05-12T20:24:16.457Z,98.81
2023-05-12T20:26:44.478Z,99.26
2023-05-12T20:29:12.454Z,100.00
2023-05-12T20:31:40.441Z,100.00
2023-05-12T20:34:08.417Z,100.00
2023-05-12T20:36:36.486Z,100.00
2023-05-12T20:39:04.710Z,100.00
2023-05-12T20:41:34.078Z,100.00
2023-05-12T20:44:02.130Z,100.00
2023-05-12T20:46:31.180Z,100.00
2023-05-12T20:48:59.848Z,100.00
2023-05-12T20:51:30.273Z,100.00
2023-05-12T20:53:58.341Z,100.00
2023-05-12T20:56:26.781Z,100.00
2023-05-12T20:58:57.393Z,100.00
2023-05-12T21:01:25.512Z,100.00
2023-05-12T21:03:53.600Z,100.00
2023-05-12T21:06:22.129Z,100.00
2023-05-12T21:08:50.048Z,100.00
2023-05-12T21:11:19.333Z,100.00
2023-05-12T21:13:48.406Z,100.00
2023-05-12T21:16:17.914Z,100.00
2023-05-12T21:18:46.315Z,100.00
2023-05-12T21:21:14.756Z,100.00
2023-05-12T21:23:42.711Z,100.00
2023-05-12T21:26:10.837Z,98.74
2023-05-12T21:28:38.774Z,97.64
2023-05-12T21:31:06.883Z,97.10
2023-05-12T21:33:36.221Z,96.95
2023-05-12T21:36:04.582Z,96.31
2023-05-12T21:38:32.790Z,96.22
2023-05-12T21:41:00.773Z,95.75
2023-05-12T21:43:28.846Z,95.28
2023-05-12T21:46:03.027Z,94.96
2023-05-12T21:48:31.098Z,94.26
2023-05-12T21:51:01.208Z,94.24
2023-05-12T21:53:30.161Z,92.88
2023-05-12T21:55:59.825Z,92.37
2023-05-12T21:58:28.341Z,92.25
2023-05-12T22:00:56.381Z,91.22
2023-05-12T22:03:25.461Z,91.47
2023-05-12T22:05:53.654Z,91.27
2023-05-12T22:08:22.924Z,92.46
2023-05-12T22:10:50.907Z,93.00
2023-05-12T22:13:19.200Z,93.72
2023-05-12T22:15:49.124Z,96.01
2023-05-12T22:18:17.380Z,97.82
2023-05-12T22:20:48.250Z,100.00
2023-05-12T22:23:17.662Z,100.00
2023-05-12T22:26:51.208Z,100.00
2023-05-12T22:30:16.857Z,100.00
2023-05-12T22:33:10.908Z,100.00
2023-05-12T22:36:00.774Z,100.00
2023-05-12T22:41:20.713Z,100.00
2023-05-12T22:43:48.741Z,100.00
2023-05-12T22:46:17.895Z,100.00
2023-05-12T22:48:47.552Z,100.00
2023-05-12T22:51:16.085Z,100.00
2023-05-12T22:53:44.342Z,100.00
2023-05-12T22:56:12.379Z,100.00
2023-05-12T22:58:40.445Z,100.00
2023-05-12T23:01:08.566Z,100.00
2023-05-12T23:03:36.571Z,100.00
2023-05-12T23:06:06.395Z,100.00
2023-05-12T23:08:35.007Z,100.00
2023-05-12T23:11:03.009Z,100.00
2023-05-12T23:13:31.375Z,100.00
2023-05-12T23:15:59.376Z,100.00
2023-05-12T23:18:27.306Z,100.00
2023-05-12T23:20:55.273Z,100.00
2023-05-12T23:23:24.676Z,100.00
2023-05-12T23:25:52.893Z,100.00
2023-05-12T23:28:20.853Z,100.00
2023-05-12T23:30:48.849Z,100.00
2023-05-12T23:33:17.726Z,100.00
2023-05-12T23:35:45.787Z,100.00
2023-05-12T23:38:13.700Z,100.00
2023-05-12T23:40:43.634Z,100.00
2023-05-12T23:43:11.696Z,100.00
2023-05-12T23:45:40.045Z,100.00
2023-05-12T23:48:08.114Z,100.00
2023-05-12T23:50:36.323Z,100.00
2023-05-12T23:53:04.296Z,100.00
2023-05-12T23:55:32.272Z,100.00
2023-05-12T23:58:01.693Z,100.00
